sensor_id;sensor_type;location;lat;lon;timestamp;P1;durP1;ratioP1;P2;durP2;ratioP2
75207;SDS011;63795;55.684;37.864;2023-03-08T00:04:20;26.73;;;14.18;;
75207;SDS011;63795;55.684;37.864;2023-03-08T00:09:21;34.00;;;14.40;;
75207;SDS011;63795;55.684;37.864;2023-03-08T00:14:21;26.42;;;12.15;;
75207;SDS011;63795;55.684;37.864;2023-03-08T00:19:22;22.73;;;13.10;;
75207;SDS011;63795;55.684;37.864;2023-03-08T00:24:22;22.47;;;12.63;;
75207;SDS011;63795;55.684;37.864;2023-03-08T00:29:23;20.50;;;10.43;;
75207;SDS011;63795;55.684;37.864;2023-03-08T00:34:23;22.55;;;11.50;;
75207;SDS011;63795;55.684;37.864;2023-03-08T00:39:24;21.13;;;10.82;;
75207;SDS011;63795;55.684;37.864;2023-03-08T00:44:24;19.83;;;9.15;;
75207;SDS011;63795;55.684;37.864;2023-03-08T00:49:25;22.00;;;9.98;;
75207;SDS011;63795;55.684;37.864;2023-03-08T00:54:25;24.02;;;11.88;;
75207;SDS011;63795;55.684;37.864;2023-03-08T00:59:26;16.47;;;8.60;;
75207;SDS011;63795;55.684;37.864;2023-03-08T01:04:26;18.73;;;7.53;;
75207;SDS011;63795;55.684;37.864;2023-03-08T01:09:27;24.17;;;11.55;;
75207;SDS011;63795;55.684;37.864;2023-03-08T01:14:27;29.85;;;11.80;;
75207;SDS011;63795;55.684;37.864;2023-03-08T01:19:29;25.40;;;13.63;;
75207;SDS011;63795;55.684;37.864;2023-03-08T01:24:29;27.40;;;12.43;;
75207;SDS011;63795;55.684;37.864;2023-03-08T01:29:30;22.27;;;12.63;;
75207;SDS011;63795;55.684;37.864;2023-03-08T01:34:30;22.63;;;10.85;;
75207;SDS011;63795;55.684;37.864;2023-03-08T01:39:31;26.15;;;10.70;;
75207;SDS011;63795;55.684;37.864;2023-03-08T01:44:51;28.42;;;13.77;;
75207;SDS011;63795;55.684;37.864;2023-03-08T01:49:58;38.47;;;20.65;;
75207;SDS011;63795;55.684;37.864;2023-03-08T01:55:07;30.52;;;14.15;;
75207;SDS011;63795;55.684;37.864;2023-03-08T02:00:12;39.50;;;15.88;;
75207;SDS011;63795;55.684;37.864;2023-03-08T02:05:13;33.65;;;15.30;;
75207;SDS011;63795;55.684;37.864;2023-03-08T02:10:16;36.42;;;16.90;;
75207;SDS011;63795;55.684;37.864;2023-03-08T02:15:18;39.47;;;17.63;;
75207;SDS011;63795;55.684;37.864;2023-03-08T02:20:36;38.47;;;22.35;;
75207;SDS011;63795;55.684;37.864;2023-03-08T02:25:38;31.42;;;13.25;;
75207;SDS011;63795;55.684;37.864;2023-03-08T02:30:39;34.45;;;16.52;;
75207;SDS011;63795;55.684;37.864;2023-03-08T02:35:39;29.52;;;14.25;;
75207;SDS011;63795;55.684;37.864;2023-03-08T02:40:41;30.50;;;14.18;;
75207;SDS011;63795;55.684;37.864;2023-03-08T02:45:42;33.30;;;12.60;;
75207;SDS011;63795;55.684;37.864;2023-03-08T02:50:42;25.73;;;11.45;;
75207;SDS011;63795;55.684;37.864;2023-03-08T02:55:43;25.42;;;10.27;;
75207;SDS011;63795;55.684;37.864;2023-03-08T03:00:44;26.05;;;11.57;;
75207;SDS011;63795;55.684;37.864;2023-03-08T03:05:44;27.45;;;12.35;;
75207;SDS011;63795;55.684;37.864;2023-03-08T03:10:45;24.25;;;12.52;;
75207;SDS011;63795;55.684;37.864;2023-03-08T03:15:45;33.88;;;14.07;;
75207;SDS011;63795;55.684;37.864;2023-03-08T03:20:46;35.40;;;12.18;;
75207;SDS011;63795;55.684;37.864;2023-03-08T03:25:46;36.30;;;13.50;;
75207;SDS011;63795;55.684;37.864;2023-03-08T03:30:47;25.67;;;9.10;;
75207;SDS011;63795;55.684;37.864;2023-03-08T03:35:47;24.35;;;8.23;;
75207;SDS011;63795;55.684;37.864;2023-03-08T03:40:48;21.50;;;9.77;;
75207;SDS011;63795;55.684;37.864;2023-03-08T03:45:55;31.73;;;14.17;;
75207;SDS011;63795;55.684;37.864;2023-03-08T03:51:00;21.85;;;10.05;;
75207;SDS011;63795;55.684;37.864;2023-03-08T03:56:13;33.30;;;13.35;;
75207;SDS011;63795;55.684;37.864;2023-03-08T04:01:18;21.50;;;10.15;;
75207;SDS011;63795;55.684;37.864;2023-03-08T04:11:25;21.83;;;8.02;;
75207;SDS011;63795;55.684;37.864;2023-03-08T04:16:28;18.23;;;8.38;;
75207;SDS011;63795;55.684;37.864;2023-03-08T04:21:33;21.05;;;8.05;;
75207;SDS011;63795;55.684;37.864;2023-03-08T04:26:34;29.10;;;10.63;;
75207;SDS011;63795;55.684;37.864;2023-03-08T04:31:34;22.23;;;8.10;;
75207;SDS011;63795;55.684;37.864;2023-03-08T04:36:35;23.65;;;10.68;;
75207;SDS011;63795;55.684;37.864;2023-03-08T04:41:36;39.90;;;13.35;;
75207;SDS011;63795;55.684;37.864;2023-03-08T04:46:36;24.20;;;9.20;;
75207;SDS011;63795;55.684;37.864;2023-03-08T04:51:37;11.10;;;4.80;;
75207;SDS011;63795;55.684;37.864;2023-03-08T04:56:37;28.23;;;11.40;;
75207;SDS011;63795;55.684;37.864;2023-03-08T05:01:38;35.63;;;14.60;;
75207;SDS011;63795;55.684;37.864;2023-03-08T05:06:38;30.83;;;11.57;;
75207;SDS011;63795;55.684;37.864;2023-03-08T05:11:39;25.75;;;11.50;;
75207;SDS011;63795;55.684;37.864;2023-03-08T05:16:39;27.83;;;11.18;;
75207;SDS011;63795;55.684;37.864;2023-03-08T05:21:40;19.33;;;6.75;;
75207;SDS011;63795;55.684;37.864;2023-03-08T05:26:40;26.55;;;9.10;;
75207;SDS011;63795;55.684;37.864;2023-03-08T05:31:41;21.48;;;11.45;;
75207;SDS011;63795;55.684;37.864;2023-03-08T05:36:44;34.25;;;19.38;;
75207;SDS011;63795;55.684;37.864;2023-03-08T05:41:44;28.00;;;14.27;;
75207;SDS011;63795;55.684;37.864;2023-03-08T05:46:48;26.70;;;12.75;;
75207;SDS011;63795;55.684;37.864;2023-03-08T05:51:49;20.40;;;9.70;;
75207;SDS011;63795;55.684;37.864;2023-03-08T05:56:50;31.85;;;12.80;;
75207;SDS011;63795;55.684;37.864;2023-03-08T06:01:50;22.07;;;11.20;;
75207;SDS011;63795;55.684;37.864;2023-03-08T06:06:50;20.40;;;12.10;;
75207;SDS011;63795;55.684;37.864;2023-03-08T06:11:51;28.58;;;14.00;;
75207;SDS011;63795;55.684;37.864;2023-03-08T06:16:51;22.17;;;9.27;;
75207;SDS011;63795;55.684;37.864;2023-03-08T06:21:52;21.52;;;9.00;;
75207;SDS011;63795;55.684;37.864;2023-03-08T06:26:52;18.40;;;8.53;;
75207;SDS011;63795;55.684;37.864;2023-03-08T06:31:54;19.65;;;9.40;;
75207;SDS011;63795;55.684;37.864;2023-03-08T06:36:55;20.85;;;9.75;;
75207;SDS011;63795;55.684;37.864;2023-03-08T06:41:58;22.83;;;11.50;;
75207;SDS011;63795;55.684;37.864;2023-03-08T06:47:01;21.98;;;9.32;;
75207;SDS011;63795;55.684;37.864;2023-03-08T06:52:02;20.00;;;10.45;;
75207;SDS011;63795;55.684;37.864;2023-03-08T06:57:02;16.85;;;6.03;;
75207;SDS011;63795;55.684;37.864;2023-03-08T07:02:03;23.00;;;11.68;;
75207;SDS011;63795;55.684;37.864;2023-03-08T07:07:03;20.50;;;10.05;;
75207;SDS011;63795;55.684;37.864;2023-03-08T07:12:06;20.33;;;8.30;;
75207;SDS011;63795;55.684;37.864;2023-03-08T07:17:07;21.10;;;8.98;;
75207;SDS011;63795;55.684;37.864;2023-03-08T07:22:07;18.57;;;9.60;;
75207;SDS011;63795;55.684;37.864;2023-03-08T07:27:08;17.10;;;8.00;;
75207;SDS011;63795;55.684;37.864;2023-03-08T07:32:12;8.20;;;3.45;;
75207;SDS011;63795;55.684;37.864;2023-03-08T07:37:13;11.40;;;4.43;;
75207;SDS011;63795;55.684;37.864;2023-03-08T07:42:15;18.52;;;8.35;;
75207;SDS011;63795;55.684;37.864;2023-03-08T07:47:15;12.52;;;6.47;;
75207;SDS011;63795;55.684;37.864;2023-03-08T07:52:16;10.33;;;4.03;;
75207;SDS011;63795;55.684;37.864;2023-03-08T07:57:16;15.40;;;6.30;;
75207;SDS011;63795;55.684;37.864;2023-03-08T08:02:17;19.23;;;6.87;;
75207;SDS011;63795;55.684;37.864;2023-03-08T08:07:17;13.60;;;6.82;;
75207;SDS011;63795;55.684;37.864;2023-03-08T08:12:18;13.47;;;4.87;;
75207;SDS011;63795;55.684;37.864;2023-03-08T08:17:18;10.57;;;6.63;;
75207;SDS011;63795;55.684;37.864;2023-03-08T08:22:19;11.50;;;5.53;;
75207;SDS011;63795;55.684;37.864;2023-03-08T08:27:20;8.65;;;3.80;;
75207;SDS011;63795;55.684;37.864;2023-03-08T08:32:20;11.77;;;6.47;;
75207;SDS011;63795;55.684;37.864;2023-03-08T08:37:21;7.93;;;4.53;;
75207;SDS011;63795;55.684;37.864;2023-03-08T08:42:22;6.38;;;3.28;;
75207;SDS011;63795;55.684;37.864;2023-03-08T08:47:22;11.38;;;5.32;;
75207;SDS011;63795;55.684;37.864;2023-03-08T08:52:23;13.20;;;5.32;;
75207;SDS011;63795;55.684;37.864;2023-03-08T08:57:23;7.95;;;2.97;;
75207;SDS011;63795;55.684;37.864;2023-03-08T09:02:24;8.80;;;5.67;;
75207;SDS011;63795;55.684;37.864;2023-03-08T09:07:24;12.75;;;6.45;;
75207;SDS011;63795;55.684;37.864;2023-03-08T09:12:25;9.13;;;6.83;;
75207;SDS011;63795;55.684;37.864;2023-03-08T09:17:25;12.17;;;7.80;;
75207;SDS011;63795;55.684;37.864;2023-03-08T09:22:26;19.90;;;8.10;;
75207;SDS011;63795;55.684;37.864;2023-03-08T09:27:26;19.97;;;11.07;;
75207;SDS011;63795;55.684;37.864;2023-03-08T09:32:26;8.50;;;3.67;;
75207;SDS011;63795;55.684;37.864;2023-03-08T09:37:27;10.88;;;5.85;;
75207;SDS011;63795;55.684;37.864;2023-03-08T09:42:32;7.55;;;3.85;;
75207;SDS011;63795;55.684;37.864;2023-03-08T09:47:37;11.25;;;4.70;;
75207;SDS011;63795;55.684;37.864;2023-03-08T09:57:51;10.73;;;6.55;;
75207;SDS011;63795;55.684;37.864;2023-03-08T10:02:59;9.13;;;4.85;;
75207;SDS011;63795;55.684;37.864;2023-03-08T10:08:44;12.05;;;4.90;;
75207;SDS011;63795;55.684;37.864;2023-03-08T10:13:48;10.68;;;5.40;;
75207;SDS011;63795;55.684;37.864;2023-03-08T10:24:24;13.48;;;4.38;;
75207;SDS011;63795;55.684;37.864;2023-03-08T10:29:35;9.50;;;6.10;;
75207;SDS011;63795;55.684;37.864;2023-03-08T10:34:36;9.45;;;4.07;;
75207;SDS011;63795;55.684;37.864;2023-03-08T10:39:46;7.53;;;4.35;;
75207;SDS011;63795;55.684;37.864;2023-03-08T10:44:59;8.65;;;4.95;;
75207;SDS011;63795;55.684;37.864;2023-03-08T10:50:03;20.85;;;11.07;;
75207;SDS011;63795;55.684;37.864;2023-03-08T11:00:31;10.07;;;4.80;;
75207;SDS011;63795;55.684;37.864;2023-03-08T11:05:32;10.77;;;6.18;;
75207;SDS011;63795;55.684;37.864;2023-03-08T11:10:32;13.87;;;6.53;;
75207;SDS011;63795;55.684;37.864;2023-03-08T11:15:33;35.93;;;18.47;;
75207;SDS011;63795;55.684;37.864;2023-03-08T11:20:43;31.98;;;16.65;;
75207;SDS011;63795;55.684;37.864;2023-03-08T11:25:54;10.65;;;6.05;;
75207;SDS011;63795;55.684;37.864;2023-03-08T11:37:08;19.33;;;11.93;;
75207;SDS011;63795;55.684;37.864;2023-03-08T11:42:28;10.68;;;7.90;;
75207;SDS011;63795;55.684;37.864;2023-03-08T11:47:45;16.52;;;7.40;;
75207;SDS011;63795;55.684;37.864;2023-03-08T12:03:48;15.05;;;7.82;;
75207;SDS011;63795;55.684;37.864;2023-03-08T12:14:20;23.48;;;14.07;;
75207;SDS011;63795;55.684;37.864;2023-03-08T12:25:05;16.48;;;9.07;;
75207;SDS011;63795;55.684;37.864;2023-03-08T12:35:31;46.97;;;20.65;;
75207;SDS011;63795;55.684;37.864;2023-03-08T12:45:41;46.17;;;27.33;;
75207;SDS011;63795;55.684;37.864;2023-03-08T13:01:38;16.00;;;8.82;;
75207;SDS011;63795;55.684;37.864;2023-03-08T13:18:32;15.23;;;6.63;;
75207;SDS011;63795;55.684;37.864;2023-03-08T13:36:39;17.63;;;12.35;;
75207;SDS011;63795;55.684;37.864;2023-03-08T14:07:16;19.17;;;9.05;;
75207;SDS011;63795;55.684;37.864;2023-03-08T14:44:21;28.35;;;16.02;;
75207;SDS011;63795;55.684;37.864;2023-03-08T14:49:40;20.88;;;8.70;;
75207;SDS011;63795;55.684;37.864;2023-03-08T14:54:40;27.38;;;13.30;;
75207;SDS011;63795;55.684;37.864;2023-03-08T14:59:41;23.27;;;11.57;;
75207;SDS011;63795;55.684;37.864;2023-03-08T15:04:42;25.58;;;12.13;;
75207;SDS011;63795;55.684;37.864;2023-03-08T15:16:16;21.77;;;10.95;;
75207;SDS011;63795;55.684;37.864;2023-03-08T15:21:48;27.35;;;12.85;;
75207;SDS011;63795;55.684;37.864;2023-03-08T15:26:59;16.30;;;7.47;;
75207;SDS011;63795;55.684;37.864;2023-03-08T15:32:39;22.15;;;12.98;;
75207;SDS011;63795;55.684;37.864;2023-03-08T15:37:52;22.30;;;11.18;;
75207;SDS011;63795;55.684;37.864;2023-03-08T15:43:18;26.98;;;13.50;;
75207;SDS011;63795;55.684;37.864;2023-03-08T15:48:40;15.68;;;7.53;;
75207;SDS011;63795;55.684;37.864;2023-03-08T15:54:21;23.38;;;12.73;;
75207;SDS011;63795;55.684;37.864;2023-03-08T16:00:04;19.55;;;9.32;;
75207;SDS011;63795;55.684;37.864;2023-03-08T16:10:25;24.58;;;13.10;;
75207;SDS011;63795;55.684;37.864;2023-03-08T16:15:27;25.60;;;14.57;;
75207;SDS011;63795;55.684;37.864;2023-03-08T16:20:27;12.60;;;6.65;;
75207;SDS011;63795;55.684;37.864;2023-03-08T16:25:28;28.50;;;15.90;;
75207;SDS011;63795;55.684;37.864;2023-03-08T16:30:28;18.13;;;8.60;;
75207;SDS011;63795;55.684;37.864;2023-03-08T16:35:30;24.88;;;17.20;;
75207;SDS011;63795;55.684;37.864;2023-03-08T16:40:30;21.35;;;7.97;;
75207;SDS011;63795;55.684;37.864;2023-03-08T16:51:57;28.08;;;15.38;;
75207;SDS011;63795;55.684;37.864;2023-03-08T16:56:57;23.75;;;13.20;;
75207;SDS011;63795;55.684;37.864;2023-03-08T17:02:07;19.40;;;10.55;;
75207;SDS011;63795;55.684;37.864;2023-03-08T17:07:22;24.95;;;16.48;;
75207;SDS011;63795;55.684;37.864;2023-03-08T17:12:22;20.05;;;9.50;;
75207;SDS011;63795;55.684;37.864;2023-03-08T17:17:23;23.80;;;11.30;;
75207;SDS011;63795;55.684;37.864;2023-03-08T17:22:24;19.52;;;9.10;;
75207;SDS011;63795;55.684;37.864;2023-03-08T17:27:24;19.38;;;9.40;;
75207;SDS011;63795;55.684;37.864;2023-03-08T17:32:37;24.73;;;12.93;;
75207;SDS011;63795;55.684;37.864;2023-03-08T17:37:37;31.10;;;13.77;;
75207;SDS011;63795;55.684;37.864;2023-03-08T17:42:40;30.60;;;17.85;;
75207;SDS011;63795;55.684;37.864;2023-03-08T17:47:41;24.15;;;13.07;;
75207;SDS011;63795;55.684;37.864;2023-03-08T17:52:42;23.85;;;11.88;;
75207;SDS011;63795;55.684;37.864;2023-03-08T17:57:42;21.53;;;11.80;;
75207;SDS011;63795;55.684;37.864;2023-03-08T18:02:43;19.60;;;9.53;;
75207;SDS011;63795;55.684;37.864;2023-03-08T18:07:43;23.03;;;12.13;;
75207;SDS011;63795;55.684;37.864;2023-03-08T18:12:45;25.40;;;11.55;;
75207;SDS011;63795;55.684;37.864;2023-03-08T18:17:46;28.27;;;11.98;;
75207;SDS011;63795;55.684;37.864;2023-03-08T18:22:47;10.43;;;4.35;;
75207;SDS011;63795;55.684;37.864;2023-03-08T18:27:47;17.08;;;7.63;;
75207;SDS011;63795;55.684;37.864;2023-03-08T18:32:48;24.05;;;7.00;;
75207;SDS011;63795;55.684;37.864;2023-03-08T18:37:49;24.02;;;9.55;;
75207;SDS011;63795;55.684;37.864;2023-03-08T18:42:49;23.37;;;9.83;;
75207;SDS011;63795;55.684;37.864;2023-03-08T18:47:50;14.53;;;6.93;;
75207;SDS011;63795;55.684;37.864;2023-03-08T18:52:51;23.83;;;13.82;;
75207;SDS011;63795;55.684;37.864;2023-03-08T18:57:51;17.33;;;8.90;;
75207;SDS011;63795;55.684;37.864;2023-03-08T19:02:52;22.63;;;10.95;;
75207;SDS011;63795;55.684;37.864;2023-03-08T19:07:52;13.40;;;5.03;;
75207;SDS011;63795;55.684;37.864;2023-03-08T19:12:53;21.80;;;12.10;;
75207;SDS011;63795;55.684;37.864;2023-03-08T19:17:54;15.70;;;11.60;;
75207;SDS011;63795;55.684;37.864;2023-03-08T19:22:55;18.33;;;10.95;;
75207;SDS011;63795;55.684;37.864;2023-03-08T19:27:56;12.20;;;6.53;;
75207;SDS011;63795;55.684;37.864;2023-03-08T19:32:56;10.85;;;4.47;;
75207;SDS011;63795;55.684;37.864;2023-03-08T19:37:57;11.48;;;5.32;;
75207;SDS011;63795;55.684;37.864;2023-03-08T19:42:57;13.13;;;5.80;;
75207;SDS011;63795;55.684;37.864;2023-03-08T19:47:58;9.73;;;3.33;;
75207;SDS011;63795;55.684;37.864;2023-03-08T19:52:58;10.07;;;5.07;;
75207;SDS011;63795;55.684;37.864;2023-03-08T19:57:59;7.95;;;2.88;;
75207;SDS011;63795;55.684;37.864;2023-03-08T20:02:59;3.70;;;1.35;;
75207;SDS011;63795;55.684;37.864;2023-03-08T20:08:01;7.30;;;4.60;;
75207;SDS011;63795;55.684;37.864;2023-03-08T20:13:01;5.93;;;2.05;;
75207;SDS011;63795;55.684;37.864;2023-03-08T20:18:02;5.63;;;1.02;;
75207;SDS011;63795;55.684;37.864;2023-03-08T20:23:03;6.15;;;2.45;;
75207;SDS011;63795;55.684;37.864;2023-03-08T20:28:04;4.68;;;1.80;;
75207;SDS011;63795;55.684;37.864;2023-03-08T20:33:04;5.43;;;0.57;;
75207;SDS011;63795;55.684;37.864;2023-03-08T20:38:05;3.83;;;1.42;;
75207;SDS011;63795;55.684;37.864;2023-03-08T20:43:05;4.80;;;0.77;;
75207;SDS011;63795;55.684;37.864;2023-03-08T20:48:09;2.08;;;0.55;;
75207;SDS011;63795;55.684;37.864;2023-03-08T20:53:10;2.80;;;0.85;;
75207;SDS011;63795;55.684;37.864;2023-03-08T20:58:10;5.15;;;1.98;;
75207;SDS011;63795;55.684;37.864;2023-03-08T21:03:11;3.90;;;1.02;;
75207;SDS011;63795;55.684;37.864;2023-03-08T21:08:12;2.83;;;1.50;;
75207;SDS011;63795;55.684;37.864;2023-03-08T21:13:12;2.67;;;0.85;;
75207;SDS011;63795;55.684;37.864;2023-03-08T21:18:13;4.90;;;1.08;;
75207;SDS011;63795;55.684;37.864;2023-03-08T21:23:14;3.60;;;1.90;;
75207;SDS011;63795;55.684;37.864;2023-03-08T21:28:18;1.67;;;1.38;;
75207;SDS011;63795;55.684;37.864;2023-03-08T21:33:20;2.83;;;1.27;;
75207;SDS011;63795;55.684;37.864;2023-03-08T21:38:21;1.40;;;0.50;;
75207;SDS011;63795;55.684;37.864;2023-03-08T21:43:21;3.30;;;1.00;;
75207;SDS011;63795;55.684;37.864;2023-03-08T21:48:22;4.18;;;2.50;;
75207;SDS011;63795;55.684;37.864;2023-03-08T21:53:22;2.47;;;1.52;;
75207;SDS011;63795;55.684;37.864;2023-03-08T21:58:22;2.47;;;0.93;;
75207;SDS011;63795;55.684;37.864;2023-03-08T22:03:23;2.67;;;1.27;;
75207;SDS011;63795;55.684;37.864;2023-03-08T22:08:25;3.63;;;0.45;;
75207;SDS011;63795;55.684;37.864;2023-03-08T22:13:26;1.75;;;0.50;;
75207;SDS011;63795;55.684;37.864;2023-03-08T22:18:26;2.90;;;0.43;;
75207;SDS011;63795;55.684;37.864;2023-03-08T22:23:27;2.03;;;1.27;;
75207;SDS011;63795;55.684;37.864;2023-03-08T22:28:27;2.47;;;0.82;;
75207;SDS011;63795;55.684;37.864;2023-03-08T22:33:28;2.30;;;0.22;;
75207;SDS011;63795;55.684;37.864;2023-03-08T22:38:31;2.67;;;2.15;;
75207;SDS011;63795;55.684;37.864;2023-03-08T22:43:32;1.67;;;0.63;;
75207;SDS011;63795;55.684;37.864;2023-03-08T22:48:33;1.65;;;0.77;;
75207;SDS011;63795;55.684;37.864;2023-03-08T22:53:33;2.85;;;0.13;;
75207;SDS011;63795;55.684;37.864;2023-03-08T22:58:40;0.93;;;0.35;;
75207;SDS011;63795;55.684;37.864;2023-03-08T23:03:40;1.33;;;0.98;;
75207;SDS011;63795;55.684;37.864;2023-03-08T23:08:41;2.67;;;0.50;;
75207;SDS011;63795;55.684;37.864;2023-03-08T23:13:42;2.53;;;2.30;;
75207;SDS011;63795;55.684;37.864;2023-03-08T23:18:43;1.70;;;0.25;;
75207;SDS011;63795;55.684;37.864;2023-03-08T23:23:46;3.13;;;1.40;;
75207;SDS011;63795;55.684;37.864;2023-03-08T23:28:47;4.13;;;1.23;;
75207;SDS011;63795;55.684;37.864;2023-03-08T23:33:48;1.10;;;0.47;;
75207;SDS011;63795;55.684;37.864;2023-03-08T23:38:49;3.63;;;1.15;;
75207;SDS011;63795;55.684;37.864;2023-03-08T23:43:53;2.78;;;1.25;;
75207;SDS011;63795;55.684;37.864;2023-03-08T23:48:56;3.00;;;2.25;;
75207;SDS011;63795;55.684;37.864;2023-03-08T23:53:59;2.35;;;0.95;;
75207;SDS011;63795;55.684;37.864;2023-03-08T23:59:00;1.55;;;1.40;;
